sensor_id;sensor_type;location;lat;lon;timestamp;temperature;humidity
51175;DHT22;37240;50.104;20.010;2023-07-13T00:01:43;25.30;95.60
51175;DHT22;37240;50.104;20.010;2023-07-13T00:06:44;25.30;95.70
51175;DHT22;37240;50.104;20.010;2023-07-13T00:11:49;25.30;95.60
51175;DHT22;37240;50.104;20.010;2023-07-13T00:16:50;25.30;95.70
51175;DHT22;37240;50.104;20.010;2023-07-13T00:21:51;25.40;95.70
51175;DHT22;37240;50.104;20.010;2023-07-13T00:26:51;25.40;95.70
51175;DHT22;37240;50.104;20.010;2023-07-13T00:31:52;25.30;95.90
51175;DHT22;37240;50.104;20.010;2023-07-13T00:36:52;25.30;96.60
51175;DHT22;37240;50.104;20.010;2023-07-13T00:41:53;25.40;96.90
51175;DHT22;37240;50.104;20.010;2023-07-13T00:46:53;25.30;97.30
51175;DHT22;37240;50.104;20.010;2023-07-13T00:51:59;25.20;97.60
51175;DHT22;37240;50.104;20.010;2023-07-13T00:57:06;25.20;98.10
51175;DHT22;37240;50.104;20.010;2023-07-13T01:02:07;25.20;98.50
51175;DHT22;37240;50.104;20.010;2023-07-13T01:07:08;25.10;98.80
51175;DHT22;37240;50.104;20.010;2023-07-13T01:12:09;25.10;98.70
51175;DHT22;37240;50.104;20.010;2023-07-13T01:17:10;25.00;99.50
51175;DHT22;37240;50.104;20.010;2023-07-13T01:22:16;24.80;99.60
51175;DHT22;37240;50.104;20.010;2023-07-13T01:27:21;24.80;99.90
51175;DHT22;37240;50.104;20.010;2023-07-13T01:32:24;24.70;99.90
51175;DHT22;37240;50.104;20.010;2023-07-13T01:37:26;24.60;99.90
51175;DHT22;37240;50.104;20.010;2023-07-13T01:42:28;24.60;99.90
51175;DHT22;37240;50.104;20.010;2023-07-13T01:47:28;24.60;99.90
51175;DHT22;37240;50.104;20.010;2023-07-13T01:52:29;24.70;99.90
51175;DHT22;37240;50.104;20.010;2023-07-13T01:57:29;24.60;99.90
51175;DHT22;37240;50.104;20.010;2023-07-13T02:02:30;24.50;99.90
51175;DHT22;37240;50.104;20.010;2023-07-13T02:07:31;24.50;99.90
51175;DHT22;37240;50.104;20.010;2023-07-13T02:12:32;24.50;99.90
51175;DHT22;37240;50.104;20.010;2023-07-13T02:17:34;24.50;99.90
51175;DHT22;37240;50.104;20.010;2023-07-13T02:22:34;24.40;99.90
51175;DHT22;37240;50.104;20.010;2023-07-13T02:27:35;24.40;99.90
51175;DHT22;37240;50.104;20.010;2023-07-13T02:32:35;24.30;99.90
51175;DHT22;37240;50.104;20.010;2023-07-13T02:37:36;24.20;99.90
51175;DHT22;37240;50.104;20.010;2023-07-13T02:42:37;24.10;99.90
51175;DHT22;37240;50.104;20.010;2023-07-13T02:47:37;24.10;99.90
51175;DHT22;37240;50.104;20.010;2023-07-13T02:52:38;24.10;99.90
51175;DHT22;37240;50.104;20.010;2023-07-13T02:57:38;24.00;99.90
51175;DHT22;37240;50.104;20.010;2023-07-13T03:02:39;24.00;99.90
51175;DHT22;37240;50.104;20.010;2023-07-13T03:07:39;24.00;99.90
51175;DHT22;37240;50.104;20.010;2023-07-13T03:12:40;24.00;99.90
51175;DHT22;37240;50.104;20.010;2023-07-13T03:17:41;23.90;99.90
51175;DHT22;37240;50.104;20.010;2023-07-13T03:22:41;23.90;99.90
51175;DHT22;37240;50.104;20.010;2023-07-13T03:27:42;24.00;99.90
51175;DHT22;37240;50.104;20.010;2023-07-13T03:32:42;24.30;99.90
51175;DHT22;37240;50.104;20.010;2023-07-13T03:37:43;25.10;99.90
51175;DHT22;37240;50.104;20.010;2023-07-13T03:42:43;25.70;99.90
51175;DHT22;37240;50.104;20.010;2023-07-13T03:47:44;26.10;99.30
51175;DHT22;37240;50.104;20.010;2023-07-13T03:52:45;25.80;99.60
51175;DHT22;37240;50.104;20.010;2023-07-13T03:57:45;25.60;99.80
51175;DHT22;37240;50.104;20.010;2023-07-13T04:02:46;25.70;99.90
51175;DHT22;37240;50.104;20.010;2023-07-13T04:07:46;26.00;99.60
51175;DHT22;37240;50.104;20.010;2023-07-13T04:12:47;26.70;98.40
51175;DHT22;37240;50.104;20.010;2023-07-13T04:17:47;27.10;97.30
51175;DHT22;37240;50.104;20.010;2023-07-13T04:22:48;27.30;96.80
51175;DHT22;37240;50.104;20.010;2023-07-13T04:27:49;27.40;96.40
51175;DHT22;37240;50.104;20.010;2023-07-13T04:32:51;27.60;96.00
51175;DHT22;37240;50.104;20.010;2023-07-13T04:37:52;27.90;95.60
51175;DHT22;37240;50.104;20.010;2023-07-13T04:42:53;28.70;94.80
51175;DHT22;37240;50.104;20.010;2023-07-13T04:47:53;29.30;93.00
51175;DHT22;37240;50.104;20.010;2023-07-13T04:52:54;29.80;92.00
51175;DHT22;37240;50.104;20.010;2023-07-13T04:57:55;30.00;91.00
51175;DHT22;37240;50.104;20.010;2023-07-13T05:02:56;30.60;88.90
51175;DHT22;37240;50.104;20.010;2023-07-13T05:07:57;30.20;88.80
51175;DHT22;37240;50.104;20.010;2023-07-13T05:12:57;30.60;88.10
51175;DHT22;37240;50.104;20.010;2023-07-13T05:17:58;31.50;84.00
51175;DHT22;37240;50.104;20.010;2023-07-13T05:22:58;32.20;80.30
51175;DHT22;37240;50.104;20.010;2023-07-13T05:27:59;32.50;77.70
51175;DHT22;37240;50.104;20.010;2023-07-13T05:32:59;32.50;76.80
51175;DHT22;37240;50.104;20.010;2023-07-13T05:38:00;32.50;76.00
51175;DHT22;37240;50.104;20.010;2023-07-13T05:43:00;32.50;75.40
51175;DHT22;37240;50.104;20.010;2023-07-13T05:48:01;32.40;74.90
51175;DHT22;37240;50.104;20.010;2023-07-13T05:53:01;32.30;74.60
51175;DHT22;37240;50.104;20.010;2023-07-13T05:58:02;32.10;75.10
51175;DHT22;37240;50.104;20.010;2023-07-13T06:03:03;31.70;75.10
51175;DHT22;37240;50.104;20.010;2023-07-13T06:08:04;31.50;75.40
51175;DHT22;37240;50.104;20.010;2023-07-13T06:13:05;31.60;75.00
51175;DHT22;37240;50.104;20.010;2023-07-13T06:18:05;31.80;76.50
51175;DHT22;37240;50.104;20.010;2023-07-13T06:23:06;32.00;75.50
51175;DHT22;37240;50.104;20.010;2023-07-13T06:28:06;32.30;74.40
51175;DHT22;37240;50.104;20.010;2023-07-13T06:33:07;34.10;68.60
51175;DHT22;37240;50.104;20.010;2023-07-13T06:38:08;34.90;63.60
51175;DHT22;37240;50.104;20.010;2023-07-13T06:43:08;34.90;62.20
51175;DHT22;37240;50.104;20.010;2023-07-13T06:48:09;35.10;61.20
51175;DHT22;37240;50.104;20.010;2023-07-13T06:53:10;35.20;59.00
51175;DHT22;37240;50.104;20.010;2023-07-13T06:58:11;34.90;59.50
51175;DHT22;37240;50.104;20.010;2023-07-13T07:03:12;34.20;61.00
51175;DHT22;37240;50.104;20.010;2023-07-13T07:08:13;33.80;61.00
51175;DHT22;37240;50.104;20.010;2023-07-13T07:13:13;34.50;58.60
51175;DHT22;37240;50.104;20.010;2023-07-13T07:18:14;35.80;55.10
51175;DHT22;37240;50.104;20.010;2023-07-13T07:23:14;36.90;51.70
51175;DHT22;37240;50.104;20.010;2023-07-13T07:28:16;37.70;50.70
51175;DHT22;37240;50.104;20.010;2023-07-13T07:33:16;38.20;50.00
51175;DHT22;37240;50.104;20.010;2023-07-13T07:38:17;39.00;48.60
51175;DHT22;37240;50.104;20.010;2023-07-13T07:43:18;38.80;46.20
51175;DHT22;37240;50.104;20.010;2023-07-13T07:48:18;38.90;45.70
51175;DHT22;37240;50.104;20.010;2023-07-13T07:53:19;38.50;45.90
51175;DHT22;37240;50.104;20.010;2023-07-13T07:58:19;38.50;46.90
51175;DHT22;37240;50.104;20.010;2023-07-13T08:03:20;38.00;47.20
51175;DHT22;37240;50.104;20.010;2023-07-13T08:08:20;37.30;47.10
51175;DHT22;37240;50.104;20.010;2023-07-13T08:13:21;37.10;47.30
51175;DHT22;37240;50.104;20.010;2023-07-13T08:18:21;37.50;47.60
51175;DHT22;37240;50.104;20.010;2023-07-13T08:23:22;37.70;45.60
51175;DHT22;37240;50.104;20.010;2023-07-13T08:28:23;37.40;45.60
51175;DHT22;37240;50.104;20.010;2023-07-13T08:33:24;37.10;45.60
51175;DHT22;37240;50.104;20.010;2023-07-13T08:38:24;36.90;45.70
51175;DHT22;37240;50.104;20.010;2023-07-13T08:43:30;36.90;45.30
51175;DHT22;37240;50.104;20.010;2023-07-13T08:59:15;35.70;47.10
51175;DHT22;37240;50.104;20.010;2023-07-13T09:04:26;35.40;47.80
51175;DHT22;37240;50.104;20.010;2023-07-13T09:09:44;35.20;48.50
51175;DHT22;37240;50.104;20.010;2023-07-13T09:14:51;35.10;48.50
51175;DHT22;37240;50.104;20.010;2023-07-13T09:19:59;35.00;48.90
51175;DHT22;37240;50.104;20.010;2023-07-13T09:25:29;34.80;49.00
51175;DHT22;37240;50.104;20.010;2023-07-13T09:30:37;34.60;50.10
51175;DHT22;37240;50.104;20.010;2023-07-13T09:35:38;34.30;50.00
51175;DHT22;37240;50.104;20.010;2023-07-13T09:40:46;33.90;51.40
51175;DHT22;37240;50.104;20.010;2023-07-13T09:45:50;33.80;51.50
51175;DHT22;37240;50.104;20.010;2023-07-13T09:50:54;33.60;51.40
51175;DHT22;37240;50.104;20.010;2023-07-13T09:55:55;33.20;51.60
51175;DHT22;37240;50.104;20.010;2023-07-13T10:01:01;33.00;52.80
51175;DHT22;37240;50.104;20.010;2023-07-13T10:06:16;32.60;53.50
51175;DHT22;37240;50.104;20.010;2023-07-13T10:11:20;32.30;54.90
51175;DHT22;37240;50.104;20.010;2023-07-13T10:16:22;32.20;55.90
51175;DHT22;37240;50.104;20.010;2023-07-13T10:21:27;32.00;56.10
51175;DHT22;37240;50.104;20.010;2023-07-13T10:26:33;31.80;57.30
51175;DHT22;37240;50.104;20.010;2023-07-13T10:31:35;31.60;59.80
51175;DHT22;37240;50.104;20.010;2023-07-13T10:36:46;31.30;59.40
51175;DHT22;37240;50.104;20.010;2023-07-13T10:41:53;31.10;61.70
51175;DHT22;37240;50.104;20.010;2023-07-13T10:47:04;31.00;64.80
51175;DHT22;37240;50.104;20.010;2023-07-13T10:52:20;31.90;64.30
51175;DHT22;37240;50.104;20.010;2023-07-13T10:57:27;32.10;63.60
51175;DHT22;37240;50.104;20.010;2023-07-13T11:02:28;32.00;63.60
51175;DHT22;37240;50.104;20.010;2023-07-13T11:07:54;31.70;66.00
51175;DHT22;37240;50.104;20.010;2023-07-13T11:12:53;31.30;66.00
51175;DHT22;37240;50.104;20.010;2023-07-13T11:17:54;30.70;69.20
51175;DHT22;37240;50.104;20.010;2023-07-13T11:33:25;28.50;82.80
51175;DHT22;37240;50.104;20.010;2023-07-13T11:39:21;28.20;87.10
51175;DHT22;37240;50.104;20.010;2023-07-13T11:44:11;28.10;90.20
51175;DHT22;37240;50.104;20.010;2023-07-13T11:49:16;27.10;92.80
51175;DHT22;37240;50.104;20.010;2023-07-13T11:54:33;26.60;92.70
51175;DHT22;37240;50.104;20.010;2023-07-13T11:59:38;26.30;91.50
51175;DHT22;37240;50.104;20.010;2023-07-13T12:04:42;26.10;90.20
51175;DHT22;37240;50.104;20.010;2023-07-13T12:09:43;25.90;90.00
51175;DHT22;37240;50.104;20.010;2023-07-13T12:14:44;25.70;90.10
51175;DHT22;37240;50.104;20.010;2023-07-13T12:19:45;25.60;90.50
51175;DHT22;37240;50.104;20.010;2023-07-13T12:24:47;25.30;91.00
51175;DHT22;37240;50.104;20.010;2023-07-13T12:30:15;25.20;91.20
51175;DHT22;37240;50.104;20.010;2023-07-13T12:35:22;25.20;91.40
51175;DHT22;37240;50.104;20.010;2023-07-13T12:40:27;25.10;92.00
51175;DHT22;37240;50.104;20.010;2023-07-13T12:45:29;25.00;92.40
51175;DHT22;37240;50.104;20.010;2023-07-13T12:50:36;25.00;92.60
51175;DHT22;37240;50.104;20.010;2023-07-13T12:55:52;24.90;93.30
51175;DHT22;37240;50.104;20.010;2023-07-13T13:00:55;24.90;93.10
51175;DHT22;37240;50.104;20.010;2023-07-13T13:06:19;24.90;94.00
51175;DHT22;37240;50.104;20.010;2023-07-13T13:11:20;25.00;93.80
51175;DHT22;37240;50.104;20.010;2023-07-13T13:21:27;25.00;94.10
51175;DHT22;37240;50.104;20.010;2023-07-13T13:26:30;25.00;94.10
51175;DHT22;37240;50.104;20.010;2023-07-13T13:31:31;25.00;94.10
51175;DHT22;37240;50.104;20.010;2023-07-13T13:36:31;24.90;94.20
51175;DHT22;37240;50.104;20.010;2023-07-13T13:41:32;25.10;94.30
51175;DHT22;37240;50.104;20.010;2023-07-13T13:46:33;25.10;94.20
51175;DHT22;37240;50.104;20.010;2023-07-13T13:51:33;25.10;94.50
51175;DHT22;37240;50.104;20.010;2023-07-13T13:56:34;25.20;94.70
51175;DHT22;37240;50.104;20.010;2023-07-13T14:01:35;25.30;94.90
51175;DHT22;37240;50.104;20.010;2023-07-13T14:06:36;25.30;95.30
51175;DHT22;37240;50.104;20.010;2023-07-13T14:11:36;25.30;95.00
51175;DHT22;37240;50.104;20.010;2023-07-13T14:16:37;25.30;94.80
51175;DHT22;37240;50.104;20.010;2023-07-13T14:21:37;25.20;95.20
51175;DHT22;37240;50.104;20.010;2023-07-13T14:26:40;25.30;95.30
51175;DHT22;37240;50.104;20.010;2023-07-13T14:31:41;25.70;95.10
51175;DHT22;37240;50.104;20.010;2023-07-13T14:36:44;26.90;91.90
51175;DHT22;37240;50.104;20.010;2023-07-13T14:41:45;26.70;92.40
51175;DHT22;37240;50.104;20.010;2023-07-13T14:46:46;26.20;93.30
51175;DHT22;37240;50.104;20.010;2023-07-13T14:51:47;26.00;93.80
51175;DHT22;37240;50.104;20.010;2023-07-13T14:56:48;25.80;94.30
51175;DHT22;37240;50.104;20.010;2023-07-13T15:01:49;25.70;94.70
51175;DHT22;37240;50.104;20.010;2023-07-13T15:06:54;25.70;94.90
51175;DHT22;37240;50.104;20.010;2023-07-13T15:11:55;25.70;94.90
51175;DHT22;37240;50.104;20.010;2023-07-13T15:16:56;25.80;95.30
51175;DHT22;37240;50.104;20.010;2023-07-13T15:21:57;25.70;95.10
51175;DHT22;37240;50.104;20.010;2023-07-13T15:26:58;25.80;95.10
51175;DHT22;37240;50.104;20.010;2023-07-13T15:31:58;25.70;95.30
51175;DHT22;37240;50.104;20.010;2023-07-13T15:36:59;25.60;95.40
51175;DHT22;37240;50.104;20.010;2023-07-13T15:41:59;25.50;95.60
51175;DHT22;37240;50.104;20.010;2023-07-13T15:47:00;25.50;95.20
51175;DHT22;37240;50.104;20.010;2023-07-13T15:52:01;25.40;95.10
51175;DHT22;37240;50.104;20.010;2023-07-13T15:57:02;25.50;95.00
51175;DHT22;37240;50.104;20.010;2023-07-13T16:02:16;25.50;94.60
51175;DHT22;37240;50.104;20.010;2023-07-13T16:07:17;25.50;94.50
51175;DHT22;37240;50.104;20.010;2023-07-13T16:12:18;25.40;94.10
51175;DHT22;37240;50.104;20.010;2023-07-13T16:17:18;25.40;94.20
51175;DHT22;37240;50.104;20.010;2023-07-13T16:22:19;25.50;94.50
51175;DHT22;37240;50.104;20.010;2023-07-13T16:27:20;25.40;94.70
51175;DHT22;37240;50.104;20.010;2023-07-13T16:32:20;25.40;94.60
51175;DHT22;37240;50.104;20.010;2023-07-13T16:37:26;25.40;94.60
51175;DHT22;37240;50.104;20.010;2023-07-13T16:42:28;25.30;94.90
51175;DHT22;37240;50.104;20.010;2023-07-13T16:47:28;25.20;95.20
51175;DHT22;37240;50.104;20.010;2023-07-13T16:52:29;24.90;95.60
51175;DHT22;37240;50.104;20.010;2023-07-13T16:57:32;24.80;96.10
51175;DHT22;37240;50.104;20.010;2023-07-13T17:02:33;24.70;96.60
51175;DHT22;37240;50.104;20.010;2023-07-13T17:07:34;24.70;96.20
51175;DHT22;37240;50.104;20.010;2023-07-13T17:12:34;24.70;96.60
51175;DHT22;37240;50.104;20.010;2023-07-13T17:17:37;24.70;96.60
51175;DHT22;37240;50.104;20.010;2023-07-13T17:22:38;24.60;96.80
51175;DHT22;37240;50.104;20.010;2023-07-13T17:27:40;24.50;97.10
51175;DHT22;37240;50.104;20.010;2023-07-13T17:32:40;24.50;97.50
51175;DHT22;37240;50.104;20.010;2023-07-13T17:37:41;24.50;97.30
51175;DHT22;37240;50.104;20.010;2023-07-13T17:42:41;24.50;97.40
51175;DHT22;37240;50.104;20.010;2023-07-13T17:47:42;24.50;96.60
51175;DHT22;37240;50.104;20.010;2023-07-13T17:52:43;24.50;96.40
51175;DHT22;37240;50.104;20.010;2023-07-13T17:57:45;24.60;96.40
51175;DHT22;37240;50.104;20.010;2023-07-13T18:02:46;24.50;96.70
51175;DHT22;37240;50.104;20.010;2023-07-13T18:07:46;24.60;96.70
51175;DHT22;37240;50.104;20.010;2023-07-13T18:12:47;24.70;96.60
51175;DHT22;37240;50.104;20.010;2023-07-13T18:17:49;24.80;96.50
51175;DHT22;37240;50.104;20.010;2023-07-13T18:22:52;24.80;96.40
51175;DHT22;37240;50.104;20.010;2023-07-13T18:27:53;24.70;96.40
51175;DHT22;37240;50.104;20.010;2023-07-13T18:32:54;24.70;96.50
51175;DHT22;37240;50.104;20.010;2023-07-13T18:37:56;24.70;96.80
51175;DHT22;37240;50.104;20.010;2023-07-13T18:42:57;24.60;96.80
51175;DHT22;37240;50.104;20.010;2023-07-13T18:47:57;24.50;97.50
51175;DHT22;37240;50.104;20.010;2023-07-13T18:52:58;24.40;97.70
51175;DHT22;37240;50.104;20.010;2023-07-13T18:57:58;24.30;98.10
51175;DHT22;37240;50.104;20.010;2023-07-13T19:02:59;24.20;98.20
51175;DHT22;37240;50.104;20.010;2023-07-13T19:08:01;24.10;98.30
51175;DHT22;37240;50.104;20.010;2023-07-13T19:13:02;24.10;98.40
51175;DHT22;37240;50.104;20.010;2023-07-13T19:18:12;24.00;98.60
51175;DHT22;37240;50.104;20.010;2023-07-13T19:23:29;23.90;98.70
51175;DHT22;37240;50.104;20.010;2023-07-13T19:28:36;23.90;98.80
51175;DHT22;37240;50.104;20.010;2023-07-13T19:33:37;23.70;99.00
51175;DHT22;37240;50.104;20.010;2023-07-13T19:38:38;23.70;99.20
51175;DHT22;37240;50.104;20.010;2023-07-13T19:43:38;23.70;98.90
51175;DHT22;37240;50.104;20.010;2023-07-13T19:48:39;23.70;99.10
51175;DHT22;37240;50.104;20.010;2023-07-13T19:53:39;23.70;99.00
51175;DHT22;37240;50.104;20.010;2023-07-13T19:58:40;23.60;99.30
51175;DHT22;37240;50.104;20.010;2023-07-13T20:03:41;23.60;99.40
51175;DHT22;37240;50.104;20.010;2023-07-13T20:08:42;23.60;99.20
51175;DHT22;37240;50.104;20.010;2023-07-13T20:13:43;23.50;99.20
51175;DHT22;37240;50.104;20.010;2023-07-13T20:18:44;23.50;99.30
51175;DHT22;37240;50.104;20.010;2023-07-13T20:23:45;23.40;99.30
51175;DHT22;37240;50.104;20.010;2023-07-13T20:28:45;23.40;99.00
51175;DHT22;37240;50.104;20.010;2023-07-13T20:33:46;23.30;99.20
51175;DHT22;37240;50.104;20.010;2023-07-13T20:38:46;23.30;99.20
51175;DHT22;37240;50.104;20.010;2023-07-13T20:43:50;23.30;99.20
51175;DHT22;37240;50.104;20.010;2023-07-13T20:48:51;23.30;99.20
51175;DHT22;37240;50.104;20.010;2023-07-13T20:53:52;23.30;99.20
51175;DHT22;37240;50.104;20.010;2023-07-13T20:58:53;23.20;99.10
51175;DHT22;37240;50.104;20.010;2023-07-13T21:03:56;23.20;99.00
51175;DHT22;37240;50.104;20.010;2023-07-13T21:08:58;23.00;99.40
51175;DHT22;37240;50.104;20.010;2023-07-13T21:13:58;23.00;99.30
51175;DHT22;37240;50.104;20.010;2023-07-13T21:18:59;22.90;99.40
51175;DHT22;37240;50.104;20.010;2023-07-13T21:24:00;22.80;99.60
51175;DHT22;37240;50.104;20.010;2023-07-13T21:29:00;22.70;99.80
51175;DHT22;37240;50.104;20.010;2023-07-13T21:34:13;22.70;99.90
51175;DHT22;37240;50.104;20.010;2023-07-13T21:39:17;22.60;99.90
51175;DHT22;37240;50.104;20.010;2023-07-13T21:44:28;22.50;99.90
51175;DHT22;37240;50.104;20.010;2023-07-13T21:49:28;22.40;99.90
51175;DHT22;37240;50.104;20.010;2023-07-13T21:54:29;22.50;99.90
51175;DHT22;37240;50.104;20.010;2023-07-13T21:59:30;22.30;99.90
51175;DHT22;37240;50.104;20.010;2023-07-13T22:04:30;22.20;99.90
51175;DHT22;37240;50.104;20.010;2023-07-13T22:09:31;22.10;99.90
51175;DHT22;37240;50.104;20.010;2023-07-13T22:14:31;22.00;99.90
51175;DHT22;37240;50.104;20.010;2023-07-13T22:19:32;21.90;99.90
51175;DHT22;37240;50.104;20.010;2023-07-13T22:24:32;21.90;99.90
51175;DHT22;37240;50.104;20.010;2023-07-13T22:29:33;21.80;99.90
51175;DHT22;37240;50.104;20.010;2023-07-13T22:34:34;21.80;99.90
51175;DHT22;37240;50.104;20.010;2023-07-13T22:39:34;21.70;99.90
51175;DHT22;37240;50.104;20.010;2023-07-13T22:44:35;21.60;99.90
51175;DHT22;37240;50.104;20.010;2023-07-13T22:49:35;21.60;99.90
51175;DHT22;37240;50.104;20.010;2023-07-13T22:54:36;21.50;99.90
51175;DHT22;37240;50.104;20.010;2023-07-13T22:59:36;21.50;99.90
51175;DHT22;37240;50.104;20.010;2023-07-13T23:04:37;21.40;99.90
51175;DHT22;37240;50.104;20.010;2023-07-13T23:09:37;21.30;99.90
51175;DHT22;37240;50.104;20.010;2023-07-13T23:14:38;21.30;99.90
51175;DHT22;37240;50.104;20.010;2023-07-13T23:19:38;21.30;99.90
51175;DHT22;37240;50.104;20.010;2023-07-13T23:24:39;21.30;99.90
51175;DHT22;37240;50.104;20.010;2023-07-13T23:29:40;21.30;99.90
51175;DHT22;37240;50.104;20.010;2023-07-13T23:34:40;21.20;99.90
51175;DHT22;37240;50.104;20.010;2023-07-13T23:39:41;21.20;99.90
51175;DHT22;37240;50.104;20.010;2023-07-13T23:44:42;21.20;99.90
51175;DHT22;37240;50.104;20.010;2023-07-13T23:49:42;21.20;99.90
51175;DHT22;37240;50.104;20.010;2023-07-13T23:54:43;21.10;99.90
51175;DHT22;37240;50.104;20.010;2023-07-13T23:59:43;21.10;99.90
